Time;durP1;ratioP1;P1;durP2;ratioP2;P2;SDS_P1;SDS_P2;PMS_P1;PMS_P2;Temp;Humidity;BMP_temperature;BMP_pressure;BME280_temperature;BME280_humidity;BME280_pressure;Samples;Min_cycle;Max_cycle;Signal;HPM_P1;HPM_P2
2022/05/28 00:01:34;;;;;;;18.05;5.03;;;13.50;99.90;;;;;;5035446;28;20052;-64
2022/05/28 00:04:04;;;;;;;23.50;6.45;;;13.50;99.90;;;;;;5042497;28;20034;-62
2022/05/28 00:06:31;;;;;;;27.52;6.63;;;13.40;99.90;;;;;;5037329;28;20485;-63
2022/05/28 00:08:58;;;;;;;20.55;4.72;;;13.40;99.90;;;;;;5045357;28;20059;-62
2022/05/28 00:11:28;;;;;;;16.58;3.88;;;13.30;99.90;;;;;;5034664;28;20041;-64
2022/05/28 00:13:54;;;;;;;18.33;5.22;;;13.20;99.90;;;;;;5036540;28;20132;-62
2022/05/28 00:16:20;;;;;;;20.92;4.78;;;13.20;99.90;;;;;;5053088;28;20111;-62
2022/05/28 00:18:47;;;;;;;25.38;5.18;;;13.20;99.90;;;;;;5034624;28;20032;-61
2022/05/28 00:21:13;;;;;;;18.65;2.90;;;13.10;99.90;;;;;;5034196;28;20033;-62
2022/05/28 00:23:40;;;;;;;22.38;4.88;;;13.10;99.90;;;;;;5034145;28;20021;-65
2022/05/28 00:26:06;;;;;;;17.85;4.07;;;13.10;99.90;;;;;;5035270;28;20028;-61
2022/05/28 00:28:33;;;;;;;19.48;4.22;;;13.00;99.90;;;;;;5052160;28;20076;-62
2022/05/28 00:31:00;;;;;;;19.60;5.38;;;12.90;99.90;;;;;;5048734;28;20501;-62
2022/05/28 00:33:27;;;;;;;22.63;4.57;;;12.90;99.90;;;;;;5037305;28;20100;-62
2022/05/28 00:35:53;;;;;;;14.93;4.60;;;12.90;99.90;;;;;;5054264;28;20036;-62
2022/05/28 00:38:19;;;;;;;15.02;4.97;;;12.80;99.90;;;;;;5053501;28;20020;-62
2022/05/28 00:40:47;;;;;;;14.18;3.72;;;12.80;99.90;;;;;;5059183;28;20369;-61
2022/05/28 00:43:12;;;;;;;14.85;2.95;;;12.80;99.90;;;;;;5073072;28;20031;-62
2022/05/28 00:45:39;;;;;;;19.75;4.35;;;12.70;99.90;;;;;;5043769;28;20068;-61
2022/05/28 00:48:06;;;;;;;13.07;3.65;;;12.70;99.90;;;;;;5059379;28;20017;-65
2022/05/28 00:50:34;;;;;;;27.33;8.13;;;12.70;99.90;;;;;;5058597;28;20043;-66
2022/05/28 00:53:01;;;;;;;21.83;6.65;;;12.60;99.90;;;;;;5034380;28;20485;-62
2022/05/28 00:55:27;;;;;;;27.40;7.57;;;12.60;99.90;;;;;;5040738;28;20100;-61
2022/05/28 00:57:53;;;;;;;20.45;4.28;;;12.60;99.90;;;;;;5033499;28;20113;-61
2022/05/28 01:00:21;;;;;;;28.10;6.75;;;12.50;99.90;;;;;;5041427;28;20017;-65
2022/05/28 01:02:53;;;;;;;26.73;4.88;;;12.50;99.90;;;;;;5051643;28;20412;-62
2022/05/28 01:05:27;;;;;;;27.17;6.97;;;12.50;99.90;;;;;;5053505;28;20063;-65
2022/05/28 01:08:14;;;;;;;20.48;5.65;;;12.40;99.90;;;;;;5054547;28;20025;-64
2022/05/28 01:11:08;;;;;;;22.67;4.78;;;12.40;99.90;;;;;;5053361;28;20039;-61
2022/05/28 01:13:47;;;;;;;20.38;5.07;;;12.40;99.90;;;;;;5065127;28;20078;-62
2022/05/28 01:16:13;;;;;;;21.90;6.70;;;12.40;99.90;;;;;;5061135;28;20025;-65
2022/05/28 01:18:44;;;;;;;21.23;5.30;;;12.40;99.90;;;;;;5067899;28;20025;-62
2022/05/28 01:21:56;;;;;;;19.50;3.83;;;12.50;99.90;;;;;;5046661;28;20024;-62
2022/05/28 01:24:48;;;;;;;15.93;3.38;;;12.40;99.90;;;;;;5059131;28;20027;-62
2022/05/28 01:27:18;;;;;;;16.70;4.73;;;12.40;99.90;;;;;;5042859;28;20093;-61
2022/05/28 01:29:50;;;;;;;14.55;3.58;;;12.40;99.90;;;;;;5052278;28;20036;-63
2022/05/28 01:32:17;;;;;;;;;;;12.50;99.90;;;;;;5049930;28;20525;-63
2022/05/28 01:34:43;;;;;;;15.07;3.55;;;12.40;99.90;;;;;;5052308;28;20349;-61
2022/05/28 01:37:10;;;;;;;17.00;2.40;;;12.40;99.90;;;;;;5052403;28;20032;-62
2022/05/28 01:39:37;;;;;;;13.07;3.70;;;12.40;99.90;;;;;;5052193;28;20029;-63
2022/05/28 01:42:06;;;;;;;11.02;2.00;;;12.50;99.90;;;;;;5050036;28;20090;-61
2022/05/28 01:44:33;;;;;;;12.32;2.42;;;12.50;99.90;;;;;;5052109;28;20225;-65
2022/05/28 01:46:58;;;;;;;11.18;2.35;;;12.50;99.90;;;;;;5048964;28;20021;-62
2022/05/28 01:49:25;;;;;;;11.57;2.42;;;12.50;99.90;;;;;;5048290;28;20051;-62
2022/05/28 01:51:54;;;;;;;19.02;3.70;;;12.50;99.90;;;;;;5046131;28;20111;-62
2022/05/28 01:54:29;;;;;;;8.57;1.80;;;12.50;99.90;;;;;;5046661;28;20055;-62
2022/05/28 01:56:56;;;;;;;10.80;2.05;;;12.50;99.90;;;;;;5046230;28;20029;-61
2022/05/28 01:59:33;;;;;;;7.20;1.75;;;12.60;99.90;;;;;;5045841;28;20663;-62
2022/05/28 02:02:01;;;;;;;12.40;1.73;;;12.60;99.90;;;;;;5051027;28;20032;-62
2022/05/28 02:04:29;;;;;;;10.35;1.80;;;12.60;99.90;;;;;;5049366;28;20496;-62
2022/05/28 02:06:55;;;;;;;9.82;2.20;;;12.60;99.90;;;;;;5046478;28;20062;-61
2022/05/28 02:09:28;;;;;;;11.02;1.65;;;12.70;99.90;;;;;;5054453;28;20028;-61
2022/05/28 02:12:20;;;;;;;9.65;1.70;;;12.70;99.90;;;;;;5057225;28;20021;-61
2022/05/28 02:15:15;;;;;;;10.73;1.95;;;12.70;99.90;;;;;;5057634;28;20391;-61
2022/05/28 02:17:48;;;;;;;10.55;1.70;;;12.70;99.90;;;;;;5043993;28;20039;-62
2022/05/28 02:20:25;;;;;;;6.28;1.10;;;12.70;99.90;;;;;;5053053;28;20029;-62
2022/05/28 02:23:03;;;;;;;8.75;2.47;;;12.70;99.90;;;;;;5056531;28;20032;-60
2022/05/28 02:25:38;;;;;;;5.70;1.17;;;12.60;99.90;;;;;;5039920;28;20017;-61
2022/05/28 02:28:05;;;;;;;6.50;1.20;;;12.60;99.90;;;;;;5071879;28;20028;-62
2022/05/28 02:30:32;;;;;;;4.55;1.08;;;12.60;99.90;;;;;;5059071;28;20094;-61
2022/05/28 02:33:04;;;;;;;6.55;2.25;;;12.50;99.90;;;;;;5068183;28;20016;-62
2022/05/28 02:35:30;;;;;;;13.18;4.13;;;12.50;99.90;;;;;;5053088;28;20032;-62
2022/05/28 02:37:56;;;;;;;12.25;2.55;;;12.40;99.90;;;;;;5055992;28;20057;-62
2022/05/28 02:40:22;;;;;;;6.65;2.08;;;12.40;99.90;;;;;;5071851;28;20059;-61
2022/05/28 02:42:48;;;;;;;8.68;2.13;;;12.40;99.90;;;;;;5070793;28;20021;-61
2022/05/28 02:45:14;;;;;;;11.73;3.55;;;12.40;99.90;;;;;;5063496;28;20032;-65
2022/05/28 02:47:39;;;;;;;8.70;1.77;;;12.30;99.90;;;;;;5068470;28;20028;-63
2022/05/28 02:50:06;;;;;;;7.88;2.63;;;12.40;99.90;;;;;;5059623;28;20082;-63
2022/05/28 02:52:31;;;;;;;10.98;2.25;;;12.40;99.90;;;;;;5075056;28;20098;-60
2022/05/28 02:54:57;;;;;;;13.00;2.75;;;12.40;99.90;;;;;;5068965;28;20719;-61
2022/05/28 02:57:23;;;;;;;9.88;2.22;;;12.40;99.90;;;;;;5066042;28;20028;-64
2022/05/28 02:59:48;;;;;;;12.40;3.55;;;12.40;99.90;;;;;;5061552;28;20027;-63
2022/05/28 03:02:14;;;;;;;9.40;1.88;;;12.40;99.90;;;;;;5060804;28;20037;-62
2022/05/28 03:04:39;;;;;;;10.20;2.08;;;12.40;99.90;;;;;;5070942;28;20023;-61
2022/05/28 03:07:06;;;;;;;6.47;1.52;;;12.40;99.90;;;;;;5062967;28;20020;-66
2022/05/28 03:09:32;;;;;;;7.57;1.13;;;12.40;99.90;;;;;;5060520;28;20033;-66
2022/05/28 03:11:58;;;;;;;14.10;2.13;;;12.40;99.90;;;;;;5070381;28;20419;-62
2022/05/28 03:14:25;;;;;;;12.63;3.90;;;12.50;99.90;;;;;;5059085;28;20031;-65
2022/05/28 03:16:52;;;;;;;7.05;1.30;;;12.50;99.90;;;;;;5069548;28;20048;-63
2022/05/28 03:19:18;;;;;;;9.35;2.17;;;12.50;99.90;;;;;;5064500;28;20526;-67
2022/05/28 03:21:44;;;;;;;5.57;1.08;;;12.50;99.90;;;;;;5061453;28;20021;-63
2022/05/28 03:24:10;;;;;;;6.32;1.33;;;12.50;99.90;;;;;;5071919;28;20029;-62
2022/05/28 03:26:36;;;;;;;5.60;1.15;;;12.50;99.90;;;;;;5059126;28;20025;-62
2022/05/28 03:29:03;;;;;;;4.30;1.15;;;12.50;99.90;;;;;;5064012;28;20028;-64
2022/05/28 03:31:29;;;;;;;7.20;1.45;;;12.40;99.90;;;;;;5063877;28;20134;-63
2022/05/28 03:33:56;;;;;;;9.23;1.58;;;12.40;99.90;;;;;;5069876;28;20016;-63
2022/05/28 03:36:22;;;;;;;5.22;1.65;;;12.40;99.90;;;;;;5056708;28;20037;-62
2022/05/28 03:38:48;;;;;;;7.85;1.52;;;12.40;99.90;;;;;;5069265;28;20032;-62
2022/05/28 03:41:14;;;;;;;8.80;1.40;;;12.40;99.90;;;;;;5054414;28;20022;-62
2022/05/28 03:43:39;;;;;;;8.18;1.60;;;12.40;99.90;;;;;;5067385;28;20441;-61
2022/05/28 03:46:05;;;;;;;8.02;1.48;;;12.30;99.90;;;;;;5058892;28;20033;-62
2022/05/28 03:48:33;;;;;;;13.43;2.45;;;12.40;99.90;;;;;;5070746;28;20078;-61
2022/05/28 03:51:00;;;;;;;11.90;1.58;;;12.40;99.90;;;;;;5061256;28;20424;-61
2022/05/28 03:53:26;;;;;;;10.43;1.73;;;12.50;99.90;;;;;;5064062;28;20361;-64
2022/05/28 03:55:51;;;;;;;11.82;1.90;;;12.50;99.90;;;;;;5068986;28;20478;-61
2022/05/28 03:58:17;;;;;;;8.02;1.98;;;12.50;99.90;;;;;;5056140;28;20017;-64
2022/05/28 04:00:43;;;;;;;10.10;1.40;;;12.40;99.90;;;;;;5054417;28;20071;-62
2022/05/28 04:03:09;;;;;;;8.95;1.65;;;12.40;99.90;;;;;;5066114;28;20082;-61
2022/05/28 04:05:38;;;;;;;5.55;2.00;;;12.40;99.90;;;;;;5066247;28;20687;-62
2022/05/28 04:08:05;;;;;;;9.93;1.73;;;12.40;99.90;;;;;;5058038;28;20021;-62
2022/05/28 04:10:30;;;;;;;9.18;1.83;;;12.40;99.90;;;;;;5070218;28;20410;-62
2022/05/28 04:12:56;;;;;;;8.30;1.58;;;12.50;99.90;;;;;;5060693;28;20070;-61
2022/05/28 04:15:24;;;;;;;8.30;1.52;;;12.50;99.90;;;;;;5063810;28;20044;-61
2022/05/28 04:17:49;;;;;;;12.70;1.58;;;12.50;99.90;;;;;;5067159;28;20021;-61
2022/05/28 04:20:16;;;;;;;8.15;1.50;;;12.50;99.90;;;;;;5056895;28;20354;-62
2022/05/28 04:22:42;;;;;;;8.45;1.80;;;12.50;99.90;;;;;;5070223;28;20028;-66
2022/05/28 04:25:08;;;;;;;10.10;1.45;;;12.60;99.90;;;;;;5065256;28;20163;-66
2022/05/28 04:27:33;;;;;;;3.58;1.13;;;12.70;99.90;;;;;;5065575;28;20021;-62
2022/05/28 04:30:00;;;;;;;11.05;1.90;;;12.80;99.90;;;;;;5073558;28;20108;-62
2022/05/28 04:32:25;;;;;;;6.80;1.40;;;12.80;99.90;;;;;;5054898;28;20068;-62
2022/05/28 04:34:51;;;;;;;8.65;1.70;;;12.80;99.90;;;;;;5067219;28;20377;-61
2022/05/28 04:37:16;;;;;;;6.90;1.60;;;12.80;99.90;;;;;;5061354;28;20360;-64
2022/05/28 04:39:44;;;;;;;6.45;1.08;;;12.70;99.90;;;;;;5060042;28;20048;-62
2022/05/28 04:42:10;;;;;;;8.38;1.88;;;12.70;99.90;;;;;;5069977;28;20495;-61
2022/05/28 04:44:35;;;;;;;10.57;1.48;;;12.80;99.90;;;;;;5053158;28;20117;-63
2022/05/28 04:47:01;;;;;;;7.80;1.77;;;12.90;99.90;;;;;;5052956;28;20176;-62
2022/05/28 04:49:27;;;;;;;10.15;2.22;;;13.00;99.90;;;;;;5053208;28;20381;-62
2022/05/28 04:51:52;;;;;;;12.35;2.15;;;13.00;99.90;;;;;;5052785;28;20461;-61
2022/05/28 04:54:18;;;;;;;10.30;2.22;;;13.10;99.90;;;;;;5053294;28;20071;-61
2022/05/28 04:56:44;;;;;;;8.15;2.63;;;13.20;99.90;;;;;;5053424;28;20031;-63
2022/05/28 04:59:10;;;;;;;9.95;2.10;;;13.30;99.90;;;;;;5050962;28;20373;-65
2022/05/28 05:01:36;;;;;;;9.07;2.47;;;13.50;99.90;;;;;;5052395;28;20029;-63
2022/05/28 05:04:02;;;;;;;11.27;2.28;;;13.60;99.90;;;;;;5052160;28;20427;-61
2022/05/28 05:06:28;;;;;;;8.63;1.95;;;13.60;99.90;;;;;;5053024;28;20108;-65
2022/05/28 05:08:53;;;;;;;11.20;1.80;;;13.70;99.90;;;;;;5052703;28;20529;-66
2022/05/28 05:11:19;;;;;;;8.35;1.30;;;13.70;99.90;;;;;;5052569;28;20428;-61
2022/05/28 05:13:44;;;;;;;10.35;1.48;;;13.60;99.90;;;;;;5052715;28;20040;-61
2022/05/28 05:16:15;;;;;;;9.82;1.67;;;13.60;99.90;;;;;;5052272;28;20019;-62
2022/05/28 05:18:41;;;;;;;12.20;1.70;;;13.60;99.90;;;;;;5055118;28;20025;-64
2022/05/28 05:21:06;;;;;;;13.02;1.55;;;13.60;99.90;;;;;;5073122;28;20036;-62
2022/05/28 05:23:32;;;;;;;8.15;1.48;;;13.70;99.90;;;;;;5053211;28;20036;-64
2022/05/28 05:25:57;;;;;;;7.82;1.40;;;13.70;99.90;;;;;;5051413;28;20087;-64
2022/05/28 05:28:23;;;;;;;6.22;1.27;;;13.90;99.90;;;;;;5052131;28;20027;-62
2022/05/28 05:30:49;;;;;;;7.40;1.65;;;14.00;99.90;;;;;;5052078;28;20116;-66
2022/05/28 05:33:14;;;;;;;12.00;2.10;;;14.00;99.90;;;;;;5050682;28;20051;-62
2022/05/28 05:35:40;;;;;;;8.02;1.40;;;14.10;99.90;;;;;;5051470;28;20155;-62
2022/05/28 05:38:08;;;;;;;12.95;1.85;;;14.20;99.90;;;;;;5052705;28;20032;-62
2022/05/28 05:40:37;;;;;;;6.75;1.77;;;14.50;99.90;;;;;;5050113;28;20025;-65
2022/05/28 05:43:04;;;;;;;7.68;1.58;;;15.00;99.90;;;;;;5050460;28;20043;-64
2022/05/28 05:45:29;;;;;;;6.55;1.55;;;15.60;99.90;;;;;;5051085;28;20021;-61
2022/05/28 05:47:55;;;;;;;5.20;1.15;;;16.10;99.90;;;;;;5052313;28;20024;-65
2022/05/28 05:50:22;;;;;;;9.40;1.80;;;16.50;98.80;;;;;;5051486;28;20040;-65
2022/05/28 05:52:48;;;;;;;6.93;1.75;;;17.00;98.60;;;;;;5051768;28;20373;-63
2022/05/28 05:55:13;;;;;;;5.00;1.30;;;17.60;97.40;;;;;;5051271;28;20075;-64
2022/05/28 05:57:39;;;;;;;7.78;1.48;;;17.60;97.00;;;;;;5051642;28;20032;-61
2022/05/28 06:00:06;;;;;;;9.25;1.70;;;17.30;97.20;;;;;;5049090;28;20187;-63
2022/05/28 06:02:31;;;;;;;8.60;1.85;;;17.10;97.50;;;;;;5052342;28;20032;-61
2022/05/28 06:04:58;;;;;;;8.13;1.73;;;17.10;97.80;;;;;;5052010;28;20036;-61
2022/05/28 06:07:24;;;;;;;6.97;2.03;;;17.60;97.50;;;;;;5052403;28;20017;-61
2022/05/28 06:09:49;;;;;;;9.05;1.85;;;18.30;97.00;;;;;;5050836;28;20372;-62
2022/05/28 06:12:15;;;;;;;10.18;2.20;;;19.10;96.60;;;;;;5051505;28;20100;-62
2022/05/28 06:14:40;;;;;;;12.38;2.05;;;20.20;95.30;;;;;;5051072;28;20405;-62
2022/05/28 06:17:06;;;;;;;9.85;1.63;;;21.00;93.80;;;;;;5052118;28;20029;-62
2022/05/28 06:19:32;;;;;;;11.95;2.42;;;21.30;92.40;;;;;;5052328;28;20103;-62
2022/05/28 06:21:59;;;;;;;12.27;2.85;;;21.10;92.10;;;;;;5051233;28;20021;-61
2022/05/28 06:24:24;;;;;;;9.45;2.05;;;21.30;91.90;;;;;;5051755;28;20037;-62
2022/05/28 06:26:50;;;;;;;12.30;2.80;;;21.60;90.80;;;;;;5051955;28;20036;-63
2022/05/28 06:29:15;;;;;;;8.77;2.70;;;21.50;90.80;;;;;;5051122;28;20070;-62
2022/05/28 06:31:41;;;;;;;10.77;2.50;;;21.00;90.80;;;;;;5051593;28;20060;-62
2022/05/28 06:34:06;;;;;;;7.15;2.03;;;20.40;91.50;;;;;;5050215;28;20394;-62
2022/05/28 06:36:32;;;;;;;11.20;2.90;;;20.40;91.70;;;;;;5051925;28;20461;-62
2022/05/28 06:38:57;;;;;;;6.40;1.80;;;20.60;91.80;;;;;;5050102;28;20364;-62
2022/05/28 06:41:23;;;;;;;10.15;2.83;;;20.40;91.40;;;;;;5051967;28;20152;-62
2022/05/28 06:43:51;;;;;;;11.80;2.35;;;19.70;91.50;;;;;;5051198;28;20020;-61
2022/05/28 06:46:18;;;;;;;8.02;2.25;;;19.20;92.00;;;;;;5051737;28;20048;-62
2022/05/28 06:48:43;;;;;;;8.07;2.20;;;19.00;92.10;;;;;;5050759;28;20457;-61
2022/05/28 06:51:10;;;;;;;10.50;2.65;;;19.20;91.40;;;;;;5051504;28;20041;-62
2022/05/28 06:53:38;;;;;;;7.55;1.50;;;19.60;90.60;;;;;;5051664;28;20031;-61
2022/05/28 06:56:05;;;;;;;14.15;3.63;;;19.40;90.60;;;;;;5051590;28;20096;-62
2022/05/28 06:58:31;;;;;;;11.02;2.28;;;18.90;91.40;;;;;;5051156;28;20070;-62
2022/05/28 07:00:57;;;;;;;9.57;2.40;;;18.60;91.80;;;;;;5051615;28;20029;-62
2022/05/28 07:03:25;;;;;;;13.13;3.05;;;19.00;91.60;;;;;;5049965;28;20429;-62
2022/05/28 07:05:51;;;;;;;8.02;1.90;;;19.50;91.10;;;;;;5051961;28;20025;-64
2022/05/28 07:08:17;;;;;;;7.90;2.25;;;19.50;91.40;;;;;;5051049;28;20025;-62
2022/05/28 07:10:46;;;;;;;7.68;2.28;;;20.00;90.90;;;;;;5051008;28;20068;-65
2022/05/28 07:13:12;;;;;;;8.82;2.33;;;20.20;90.40;;;;;;5051553;28;20029;-65
2022/05/28 07:15:38;;;;;;;10.25;2.63;;;20.40;90.50;;;;;;5051250;28;20447;-64
2022/05/28 07:18:05;;;;;;;13.60;4.10;;;20.80;90.50;;;;;;5050623;28;20099;-63
2022/05/28 07:20:31;;;;;;;11.88;3.13;;;21.60;89.60;;;;;;5050908;28;20025;-65
2022/05/28 07:22:56;;;;;;;8.75;1.35;;;21.90;88.00;;;;;;5051413;28;20017;-62
2022/05/28 07:25:22;;;;;;;10.38;2.53;;;21.20;88.70;;;;;;5051490;28;20111;-65
2022/05/28 07:27:48;;;;;;;10.25;3.00;;;20.40;90.30;;;;;;5054998;28;20037;-62
2022/05/28 07:30:14;;;;;;;13.55;3.00;;;19.60;90.60;;;;;;5053723;28;20033;-63
2022/05/28 07:32:40;;;;;;;16.20;3.22;;;19.10;91.20;;;;;;5054566;28;20404;-63
2022/05/28 07:35:06;;;;;;;11.20;2.35;;;18.80;91.60;;;;;;5054834;28;20025;-63
2022/05/28 07:37:32;;;;;;;11.73;2.80;;;18.50;91.70;;;;;;5054505;28;20028;-62
2022/05/28 07:39:58;;;;;;;11.43;2.40;;;18.30;92.10;;;;;;5052804;28;20536;-65
2022/05/28 07:42:26;;;;;;;12.63;2.45;;;18.20;92.30;;;;;;5053687;28;20028;-65
2022/05/28 07:44:52;;;;;;;11.90;3.15;;;18.20;92.60;;;;;;5054119;28;20028;-64
2022/05/28 07:47:18;;;;;;;7.45;2.60;;;18.50;92.90;;;;;;5053715;28;20346;-65
2022/05/28 07:49:44;;;;;;;11.27;2.63;;;19.10;91.90;;;;;;5054311;28;20049;-64
2022/05/28 07:52:10;;;;;;;14.80;3.28;;;19.40;90.90;;;;;;5054689;28;20029;-62
2022/05/28 07:54:35;;;;;;;9.55;2.47;;;19.40;90.70;;;;;;5052466;28;20017;-62
2022/05/28 07:57:01;;;;;;;8.55;2.13;;;19.30;90.80;;;;;;5054913;28;20103;-61
2022/05/28 07:59:26;;;;;;;14.45;2.20;;;19.00;91.20;;;;;;5053878;28;20020;-62
2022/05/28 08:01:52;;;;;;;9.25;1.88;;;18.70;92.00;;;;;;5053992;28;20476;-62
2022/05/28 08:04:17;;;;;;;8.05;1.90;;;18.60;92.00;;;;;;5051734;28;20021;-62
2022/05/28 08:06:43;;;;;;;13.32;2.17;;;18.80;92.10;;;;;;5054968;28;20056;-62
2022/05/28 08:09:11;;;;;;;11.27;3.17;;;19.00;91.70;;;;;;5053587;28;20029;-62
2022/05/28 08:11:37;;;;;;;11.27;2.20;;;18.90;91.20;;;;;;5054445;28;20075;-62
2022/05/28 08:14:03;;;;;;;10.38;2.45;;;18.80;91.60;;;;;;5054034;28;20060;-63
2022/05/28 08:16:28;;;;;;;8.45;2.03;;;19.00;91.80;;;;;;5054336;28;20029;-62
2022/05/28 08:18:54;;;;;;;5.68;2.10;;;19.50;92.00;;;;;;5053326;28;20163;-62
2022/05/28 08:24:05;;;;;;;12.40;2.20;;;20.40;90.20;;;;;;5054213;28;20637;-62
2022/05/28 08:26:30;;;;;;;10.57;2.17;;;21.50;89.40;;;;;;5052670;28;20143;-63
2022/05/28 08:28:56;;;;;;;7.30;1.52;;;22.60;87.60;;;;;;5052979;28;20040;-63
2022/05/28 08:31:23;;;;;;;11.48;2.45;;;23.30;85.30;;;;;;5045267;28;20055;-62
2022/05/28 08:33:49;;;;;;;12.95;2.42;;;23.30;85.20;;;;;;5053029;28;20060;-63
2022/05/28 08:36:15;;;;;;;7.95;2.40;;;23.00;85.70;;;;;;5052653;28;20029;-61
2022/05/28 08:38:41;;;;;;;12.68;2.08;;;23.10;84.00;;;;;;5051846;28;20078;-62
2022/05/28 08:41:13;;;;;;;8.50;2.33;;;23.30;83.20;;;;;;5051915;28;20485;-61
2022/05/28 08:43:45;;;;;;;9.80;1.75;;;23.40;83.00;;;;;;5053484;28;20025;-61
2022/05/28 08:46:13;;;;;;;9.23;2.58;;;22.90;82.80;;;;;;5050216;28;20056;-61
2022/05/28 08:48:50;;;;;;;13.75;2.33;;;22.30;83.60;;;;;;5053750;28;20053;-61
2022/05/28 08:51:21;;;;;;;8.20;1.95;;;21.60;84.40;;;;;;5053131;28;20385;-60
2022/05/28 08:53:54;;;;;;;9.88;2.13;;;21.00;85.50;;;;;;5053967;28;20028;-61
2022/05/28 08:56:24;;;;;;;9.88;1.92;;;20.70;86.20;;;;;;5052106;28;20442;-61
2022/05/28 08:59:08;;;;;;;11.48;1.77;;;21.00;85.20;;;;;;5052503;28;20453;-61
2022/05/28 09:01:37;;;;;;;12.18;1.92;;;21.70;82.50;;;;;;5052992;28;20108;-62
2022/05/28 09:04:11;;;;;;;6.40;1.60;;;21.80;83.30;;;;;;5053628;28;20025;-62
2022/05/28 09:06:41;;;;;;;7.40;2.00;;;22.40;83.30;;;;;;5053523;28;20493;-62
2022/05/28 09:09:12;;;;;;;7.00;1.45;;;22.70;81.10;;;;;;5052673;28;20033;-62
2022/05/28 09:11:43;;;;;;;7.10;2.13;;;22.40;82.30;;;;;;5033293;28;20423;-61
2022/05/28 09:14:28;;;;;;;8.23;2.22;;;23.00;81.50;;;;;;5033708;28;20057;-61
2022/05/28 09:17:00;;;;;;;11.90;2.35;;;23.40;80.50;;;;;;5049895;28;20021;-62
2022/05/28 09:19:39;;;;;;;12.50;3.03;;;23.00;81.10;;;;;;5052898;28;20025;-61
2022/05/28 09:22:04;;;;;;;12.25;2.17;;;22.50;83.00;;;;;;5053431;28;20059;-62
2022/05/28 09:24:32;;;;;;;12.15;2.38;;;21.90;83.80;;;;;;5054027;28;20057;-62
2022/05/28 09:27:00;;;;;;;10.18;1.55;;;21.90;84.40;;;;;;5061176;28;20070;-62
2022/05/28 09:29:47;;;;;;;7.32;1.65;;;22.70;82.90;;;;;;5058938;28;20401;-62
2022/05/28 09:32:30;;;;;;;9.25;1.75;;;23.70;79.70;;;;;;5059727;28;20072;-63
2022/05/28 09:35:13;;;;;;;10.93;2.95;;;23.80;78.50;;;;;;5053300;28;20029;-62
2022/05/28 09:37:59;;;;;;;11.55;2.08;;;24.80;76.60;;;;;;5052706;28;20070;-62
2022/05/28 09:40:36;;;;;;;11.07;2.22;;;25.40;75.30;;;;;;5061589;28;20055;-62
2022/05/28 09:43:21;;;;;;;10.38;2.00;;;25.40;74.50;;;;;;5042327;28;20031;-62
2022/05/28 09:45:55;;;;;;;15.60;3.50;;;25.90;73.50;;;;;;5052573;28;20025;-62
2022/05/28 09:48:24;;;;;;;8.23;1.63;;;26.60;69.70;;;;;;5051977;28;20025;-62
2022/05/28 09:50:50;;;;;;;11.88;2.45;;;25.90;71.50;;;;;;5052461;28;20033;-62
2022/05/28 09:56:37;;;;;;;8.70;2.35;;;26.70;69.90;;;;;;5050401;28;20079;-63
2022/05/28 09:59:21;;;;;;;11.85;2.00;;;26.20;70.10;;;;;;5055649;28;20025;-62
2022/05/28 10:02:11;;;;;;;9.35;2.40;;;25.10;71.60;;;;;;5050752;28;20025;-62
2022/05/28 10:04:48;;;;;;;11.05;1.90;;;24.50;72.40;;;;;;5047300;28;20457;-64
2022/05/28 10:07:14;;;;;;;7.22;1.75;;;25.20;70.80;;;;;;5049601;28;20372;-64
2022/05/28 10:09:53;;;;;;;7.70;1.60;;;26.10;68.40;;;;;;5051142;28;20021;-63
2022/05/28 10:12:27;;;;;;;10.20;2.15;;;26.90;69.00;;;;;;5051860;28;20070;-63
2022/05/28 10:15:05;;;;;;;7.20;1.77;;;27.50;67.40;;;;;;5051242;28;20025;-66
2022/05/28 10:17:32;;;;;;;7.82;1.70;;;27.80;66.90;;;;;;5048725;28;20056;-64
2022/05/28 10:19:59;;;;;;;8.48;1.65;;;27.50;67.00;;;;;;5050830;28;20029;-62
2022/05/28 10:22:26;;;;;;;7.25;2.17;;;27.00;67.30;;;;;;5050678;28;20060;-66
2022/05/28 10:24:56;;;;;;;9.57;2.15;;;27.10;68.00;;;;;;5051090;28;20053;-65
2022/05/28 10:27:30;;;;;;;9.23;1.70;;;27.10;67.10;;;;;;5051352;28;20466;-64
2022/05/28 10:29:58;;;;;;;9.23;1.80;;;27.40;66.30;;;;;;5050251;28;20497;-64
2022/05/28 10:32:32;;;;;;;11.68;1.98;;;28.00;65.50;;;;;;5056477;28;20033;-65
2022/05/28 10:35:15;;;;;;;9.30;1.80;;;27.70;65.70;;;;;;5051971;28;20016;-64
2022/05/28 10:37:41;;;;;;;10.82;1.80;;;26.90;66.70;;;;;;5052382;28;20033;-65
2022/05/28 10:40:12;;;;;;;6.25;1.55;;;26.50;67.70;;;;;;5051661;28;20435;-63
2022/05/28 10:42:38;;;;;;;7.80;1.65;;;26.10;68.10;;;;;;5048943;28;20029;-68
2022/05/28 10:45:07;;;;;;;9.15;1.67;;;25.90;69.20;;;;;;5049682;28;20051;-63
2022/05/28 10:47:45;;;;;;;9.13;1.65;;;26.00;68.70;;;;;;5032049;28;20025;-63
2022/05/28 10:50:38;;;;;;;10.75;2.00;;;25.60;69.70;;;;;;5048994;28;20051;-65
2022/05/28 10:53:42;;;;;;;9.50;1.50;;;25.20;69.60;;;;;;5051351;28;20489;-62
2022/05/28 10:56:33;;;;;;;8.50;2.03;;;25.10;69.10;;;;;;5036585;28;20746;-64
2022/05/28 10:59:16;;;;;;;11.07;2.05;;;25.70;68.00;;;;;;5049342;28;20060;-61
2022/05/28 11:02:00;;;;;;;5.13;1.00;;;26.20;65.90;;;;;;5052380;28;20041;-65
2022/05/28 11:04:59;;;;;;;5.10;1.38;;;25.90;66.30;;;;;;5053109;28;20049;-61
2022/05/28 11:07:49;;;;;;;10.95;1.60;;;25.60;65.80;;;;;;5053337;28;20104;-61
2022/05/28 11:10:43;;;;;;;8.35;1.70;;;25.40;66.00;;;;;;5053499;28;20043;-62
2022/05/28 11:13:26;;;;;;;6.05;1.60;;;25.80;65.80;;;;;;5052151;28;20025;-64
2022/05/28 11:16:29;;;;;;;5.90;1.67;;;26.70;65.10;;;;;;5054028;28;20063;-64
2022/05/28 11:19:11;;;;;;;6.55;1.45;;;26.70;63.70;;;;;;5055051;28;20048;-65
2022/05/28 11:22:08;;;;;;;13.63;2.63;;;26.10;63.10;;;;;;5050472;28;20107;-63
2022/05/28 11:24:45;;;;;;;8.85;1.90;;;26.10;63.40;;;;;;5046305;28;20021;-65
2022/05/28 11:27:29;;;;;;;8.43;1.90;;;26.70;62.80;;;;;;5044140;28;20025;-63
2022/05/28 11:30:31;;;;;;;7.15;1.58;;;27.50;60.60;;;;;;5042540;28;20033;-64
2022/05/28 11:33:12;;;;;;;9.32;3.22;;;28.20;59.60;;;;;;5045649;28;20072;-64
2022/05/28 11:35:48;;;;;;;12.65;4.53;;;28.80;58.10;;;;;;5045553;28;20025;-62
2022/05/28 11:38:19;;;;;;;11.20;4.40;;;29.20;58.80;;;;;;5045342;28;20075;-64
2022/05/28 11:41:00;;;;;;;10.48;4.30;;;29.40;58.90;;;;;;5049407;28;20029;-66
2022/05/28 11:43:30;;;;;;;12.57;4.27;;;29.60;59.10;;;;;;5047549;28;20139;-67
2022/05/28 11:46:12;;;;;;;12.57;3.53;;;29.30;59.20;;;;;;5053712;28;20243;-64
2022/05/28 11:51:46;;;;;;;20.05;5.70;;;29.50;58.90;;;;;;5052925;28;20099;-63
2022/05/28 11:54:30;;;;;;;15.90;5.78;;;29.60;58.80;;;;;;5036614;28;20013;-62
2022/05/28 11:57:02;;;;;;;12.00;3.65;;;29.90;58.60;;;;;;5040533;28;20052;-61
2022/05/28 11:59:29;;;;;;;10.43;3.22;;;29.80;57.40;;;;;;5054878;28;20052;-62
2022/05/28 12:02:07;;;;;;;14.82;4.10;;;29.70;58.30;;;;;;5053497;28;20053;-62
2022/05/28 12:04:39;;;;;;;10.88;3.05;;;29.90;57.00;;;;;;5054087;28;20021;-67
2022/05/28 12:07:31;;;;;;;10.75;3.33;;;30.20;57.50;;;;;;5035102;28;20079;-65
2022/05/28 12:09:57;;;;;;;11.90;2.70;;;30.50;56.50;;;;;;5033184;28;20111;-64
2022/05/28 12:12:26;;;;;;;11.57;3.20;;;30.20;57.10;;;;;;5036819;28;20479;-63
2022/05/28 12:15:07;;;;;;;11.48;2.80;;;29.30;57.40;;;;;;5045701;28;20025;-64
2022/05/28 12:17:32;;;;;;;14.93;4.43;;;28.30;57.40;;;;;;5051709;28;20132;-65
2022/05/28 12:20:10;;;;;;;13.55;2.97;;;27.40;59.00;;;;;;5054306;28;20504;-64
2022/05/28 12:22:41;;;;;;;11.38;3.53;;;27.40;60.10;;;;;;5051180;28;20025;-63
2022/05/28 12:25:14;;;;;;;13.48;3.70;;;27.20;59.80;;;;;;5034707;28;20485;-64
2022/05/28 12:27:48;;;;;;;12.43;3.72;;;26.90;60.40;;;;;;5044485;28;20033;-65
2022/05/28 12:30:37;;;;;;;14.55;2.70;;;26.60;61.10;;;;;;5053524;28;20380;-64
2022/05/28 12:33:03;;;;;;;13.07;3.13;;;25.90;61.50;;;;;;5054002;28;20465;-65
2022/05/28 12:35:42;;;;;;;11.02;2.67;;;25.60;61.80;;;;;;5054147;28;20096;-64
2022/05/28 12:38:08;;;;;;;10.25;2.55;;;25.00;63.10;;;;;;5053724;28;20078;-67
2022/05/28 12:40:52;;;;;;;9.70;2.92;;;24.50;63.60;;;;;;5044695;28;20028;-61
2022/05/28 12:43:26;;;;;;;13.30;4.28;;;24.10;63.50;;;;;;5052948;28;20040;-63
2022/05/28 12:45:54;;;;;;;10.70;3.72;;;24.00;63.70;;;;;;5053265;28;20020;-62
2022/05/28 12:48:31;;;;;;;12.70;3.15;;;23.70;63.60;;;;;;5053661;28;20017;-63
2022/05/28 12:51:18;;;;;;;12.50;2.50;;;23.30;65.50;;;;;;5053794;28;20069;-64
2022/05/28 12:53:51;;;;;;;9.00;2.30;;;23.20;65.50;;;;;;5053713;28;20150;-63
2022/05/28 12:56:35;;;;;;;11.18;2.58;;;23.10;67.70;;;;;;5053489;28;20456;-66
2022/05/28 12:59:21;;;;;;;8.68;2.60;;;23.20;66.30;;;;;;5053418;28;20021;-64
2022/05/28 13:01:58;;;;;;;12.63;2.10;;;23.00;67.80;;;;;;5053658;28;20025;-64
2022/05/28 13:04:27;;;;;;;9.60;2.58;;;22.70;68.40;;;;;;5053722;28;20086;-64
2022/05/28 13:06:56;;;;;;;12.05;2.20;;;22.50;68.20;;;;;;5053633;28;20162;-64